Estación Meteorológica Peña el Pijo (Robertgarden) [ 02/03/23 04:27:07 CET ]

Fecha Hora Presion(HPa) Temp (°C) Humedad % Rocio (°C) Viento ( m/s) Direccion Lluvia 1Hora(mm) Lluvia 24H(mm) LLuvia Total(mm)
2010-Jun-26 01:01:21 1011.500 12.9 65 6.5         120.17
2010-Jun-26 02:01:13 1011.300 11.9 68 6.2         120.17
2010-Jun-26 03:04:16 1010.900 10.9 71 5.9         120.17
2010-Jun-26 04:01:18 1010.500 10.1 74 5.7         120.17
2010-Jun-26 05:01:17 1010.400 9.5 77 5.6         120.17
2010-Jun-26 06:01:14 1010.400 9.3 79 5.8         120.17
2010-Jun-26 07:01:13 1010.500 8.6 80 5.3         120.17
2010-Jun-26 08:01:16 1010.300 10.5 77 6.6         120.17
2010-Jun-26 09:01:16 1010.200 16.9 59 8.8         120.17
2010-Jun-26 10:01:19 1010.000 22.1 40 7.9         120.17
2010-Jun-26 11:01:12 1010.000 26.1 30 7.2         120.17
2010-Jun-26 12:01:17 1010.000 28.4 27 7.4 5.2 NE     120.17
2010-Jun-26 13:01:13 1010.000 29.9 22 5.7         120.17
2010-Jun-26 14:01:13 1009.900 30.9 21 6.0         120.17
2010-Jun-26 15:01:16 1009.600 30.6 23 6.9         120.17
2010-Jun-26 16:01:14 1009.200 30.8 24 7.7         120.17
2010-Jun-26 17:01:14 1009.000 31.4 22 7.0         120.17
2010-Jun-26 18:01:14 1009.100 29.9 21 5.1 5.5 NE     120.17
2010-Jun-26 19:01:13 1008.800 27.9 26 6.4         120.17
2010-Jun-26 20:01:12 1009.200 26.6 30 7.6 0.4 NE     120.17
2010-Jun-26 21:01:19 1009.500 22.9 38 7.8         120.17
2010-Jun-26 22:01:16 1010.100 19.8 47 8.1         120.17
2010-Jun-26 23:01:16 1010.900 16.3 51 6.1         120.17

Temperatura Máxima:31°    Temperatura Mínima:
Presión Máxima:1011.500 Hpa    Presión Mínima:1008.800 Hpa


Volver